sensor_id;sensor_type;location;lat;lon;timestamp;P1;durP1;ratioP1;P2;durP2;ratioP2
42282;SDS011;28237;47.954;21.730;2023-10-19T00:01:14;18.35;;;10.18;;
42282;SDS011;28237;47.954;21.730;2023-10-19T00:03:40;16.45;;;9.80;;
42282;SDS011;28237;47.954;21.730;2023-10-19T00:06:06;15.10;;;10.75;;
42282;SDS011;28237;47.954;21.730;2023-10-19T00:08:31;19.17;;;11.15;;
42282;SDS011;28237;47.954;21.730;2023-10-19T00:11:06;16.83;;;11.43;;
42282;SDS011;28237;47.954;21.730;2023-10-19T00:13:35;18.00;;;10.43;;
42282;SDS011;28237;47.954;21.730;2023-10-19T00:16:01;19.65;;;11.63;;
42282;SDS011;28237;47.954;21.730;2023-10-19T00:18:29;18.25;;;11.07;;
42282;SDS011;28237;47.954;21.730;2023-10-19T00:20:57;17.20;;;11.27;;
42282;SDS011;28237;47.954;21.730;2023-10-19T00:23:42;15.57;;;10.10;;
42282;SDS011;28237;47.954;21.730;2023-10-19T00:26:07;16.90;;;9.73;;
42282;SDS011;28237;47.954;21.730;2023-10-19T00:28:40;18.45;;;11.35;;
42282;SDS011;28237;47.954;21.730;2023-10-19T00:31:05;17.35;;;10.60;;
42282;SDS011;28237;47.954;21.730;2023-10-19T00:33:34;21.33;;;13.82;;
42282;SDS011;28237;47.954;21.730;2023-10-19T00:36:03;15.65;;;10.88;;
42282;SDS011;28237;47.954;21.730;2023-10-19T00:38:38;18.98;;;11.40;;
42282;SDS011;28237;47.954;21.730;2023-10-19T00:41:05;17.80;;;12.23;;
42282;SDS011;28237;47.954;21.730;2023-10-19T00:43:31;24.33;;;11.20;;
42282;SDS011;28237;47.954;21.730;2023-10-19T00:46:05;17.05;;;10.68;;
42282;SDS011;28237;47.954;21.730;2023-10-19T00:48:54;15.27;;;10.00;;
42282;SDS011;28237;47.954;21.730;2023-10-19T00:51:21;20.27;;;10.93;;
42282;SDS011;28237;47.954;21.730;2023-10-19T00:56:22;25.15;;;10.73;;
42282;SDS011;28237;47.954;21.730;2023-10-19T00:58:49;16.85;;;11.25;;
42282;SDS011;28237;47.954;21.730;2023-10-19T01:01:22;20.77;;;12.38;;
42282;SDS011;28237;47.954;21.730;2023-10-19T01:03:53;15.38;;;9.48;;
42282;SDS011;28237;47.954;21.730;2023-10-19T01:06:22;18.48;;;10.85;;
42282;SDS011;28237;47.954;21.730;2023-10-19T01:08:47;20.38;;;12.70;;
42282;SDS011;28237;47.954;21.730;2023-10-19T01:11:16;18.63;;;11.10;;
42282;SDS011;28237;47.954;21.730;2023-10-19T01:13:44;14.45;;;10.50;;
42282;SDS011;28237;47.954;21.730;2023-10-19T01:16:13;15.65;;;10.18;;
42282;SDS011;28237;47.954;21.730;2023-10-19T01:18:46;16.40;;;9.50;;
42282;SDS011;28237;47.954;21.730;2023-10-19T01:21:11;12.50;;;9.23;;
42282;SDS011;28237;47.954;21.730;2023-10-19T01:23:37;14.73;;;9.87;;
42282;SDS011;28237;47.954;21.730;2023-10-19T01:26:04;15.15;;;10.38;;
42282;SDS011;28237;47.954;21.730;2023-10-19T01:28:36;14.50;;;9.48;;
42282;SDS011;28237;47.954;21.730;2023-10-19T01:31:13;19.40;;;11.60;;
42282;SDS011;28237;47.954;21.730;2023-10-19T01:33:53;16.63;;;10.35;;
42282;SDS011;28237;47.954;21.730;2023-10-19T01:36:32;16.95;;;10.20;;
42282;SDS011;28237;47.954;21.730;2023-10-19T01:41:35;15.68;;;9.60;;
42282;SDS011;28237;47.954;21.730;2023-10-19T01:44:01;16.43;;;9.70;;
42282;SDS011;28237;47.954;21.730;2023-10-19T01:46:29;16.38;;;9.60;;
42282;SDS011;28237;47.954;21.730;2023-10-19T01:48:58;14.98;;;8.57;;
42282;SDS011;28237;47.954;21.730;2023-10-19T01:51:24;16.77;;;10.18;;
42282;SDS011;28237;47.954;21.730;2023-10-19T01:53:53;14.00;;;9.68;;
42282;SDS011;28237;47.954;21.730;2023-10-19T01:56:20;17.30;;;9.70;;
42282;SDS011;28237;47.954;21.730;2023-10-19T01:58:46;13.98;;;9.15;;
42282;SDS011;28237;47.954;21.730;2023-10-19T02:01:12;16.52;;;10.60;;
42282;SDS011;28237;47.954;21.730;2023-10-19T02:03:54;23.63;;;11.27;;
42282;SDS011;28237;47.954;21.730;2023-10-19T02:06:22;18.30;;;10.35;;
42282;SDS011;28237;47.954;21.730;2023-10-19T02:09:14;16.65;;;9.88;;
42282;SDS011;28237;47.954;21.730;2023-10-19T02:11:43;15.25;;;10.35;;
42282;SDS011;28237;47.954;21.730;2023-10-19T02:14:11;12.40;;;9.27;;
42282;SDS011;28237;47.954;21.730;2023-10-19T02:16:42;17.58;;;10.02;;
42282;SDS011;28237;47.954;21.730;2023-10-19T02:19:09;15.50;;;10.02;;
42282;SDS011;28237;47.954;21.730;2023-10-19T02:21:34;13.90;;;9.07;;
42282;SDS011;28237;47.954;21.730;2023-10-19T02:24:04;18.73;;;11.05;;
42282;SDS011;28237;47.954;21.730;2023-10-19T02:26:29;13.68;;;8.90;;
42282;SDS011;28237;47.954;21.730;2023-10-19T02:28:56;18.30;;;9.88;;
42282;SDS011;28237;47.954;21.730;2023-10-19T02:31:23;17.00;;;10.65;;
42282;SDS011;28237;47.954;21.730;2023-10-19T02:33:50;13.55;;;9.48;;
42282;SDS011;28237;47.954;21.730;2023-10-19T02:36:24;14.00;;;9.90;;
42282;SDS011;28237;47.954;21.730;2023-10-19T02:38:53;16.33;;;9.73;;
42282;SDS011;28237;47.954;21.730;2023-10-19T02:41:23;13.35;;;9.15;;
42282;SDS011;28237;47.954;21.730;2023-10-19T02:43:49;10.73;;;9.43;;
42282;SDS011;28237;47.954;21.730;2023-10-19T02:46:27;14.05;;;8.82;;
42282;SDS011;28237;47.954;21.730;2023-10-19T02:48:52;16.08;;;10.48;;
42282;SDS011;28237;47.954;21.730;2023-10-19T02:51:17;13.05;;;9.05;;
42282;SDS011;28237;47.954;21.730;2023-10-19T02:53:44;16.13;;;9.45;;
42282;SDS011;28237;47.954;21.730;2023-10-19T02:56:10;15.05;;;10.90;;
42282;SDS011;28237;47.954;21.730;2023-10-19T02:58:36;13.52;;;8.95;;
42282;SDS011;28237;47.954;21.730;2023-10-19T03:01:02;20.63;;;10.50;;
42282;SDS011;28237;47.954;21.730;2023-10-19T03:03:27;19.90;;;10.90;;
42282;SDS011;28237;47.954;21.730;2023-10-19T03:05:56;10.50;;;8.27;;
42282;SDS011;28237;47.954;21.730;2023-10-19T03:08:21;15.00;;;8.70;;
42282;SDS011;28237;47.954;21.730;2023-10-19T03:10:49;15.27;;;9.75;;
42282;SDS011;28237;47.954;21.730;2023-10-19T03:13:28;13.60;;;9.02;;
42282;SDS011;28237;47.954;21.730;2023-10-19T03:15:54;14.93;;;9.88;;
42282;SDS011;28237;47.954;21.730;2023-10-19T03:18:19;18.17;;;10.98;;
42282;SDS011;28237;47.954;21.730;2023-10-19T03:20:44;15.07;;;9.63;;
42282;SDS011;28237;47.954;21.730;2023-10-19T03:23:10;15.10;;;10.32;;
42282;SDS011;28237;47.954;21.730;2023-10-19T03:25:35;15.65;;;9.18;;
42282;SDS011;28237;47.954;21.730;2023-10-19T03:28:19;20.17;;;10.05;;
42282;SDS011;28237;47.954;21.730;2023-10-19T03:30:44;15.25;;;9.60;;
42282;SDS011;28237;47.954;21.730;2023-10-19T03:33:12;16.83;;;10.02;;
42282;SDS011;28237;47.954;21.730;2023-10-19T03:35:38;17.65;;;9.93;;
42282;SDS011;28237;47.954;21.730;2023-10-19T03:38:06;12.75;;;9.55;;
42282;SDS011;28237;47.954;21.730;2023-10-19T03:40:39;15.30;;;10.00;;
42282;SDS011;28237;47.954;21.730;2023-10-19T03:43:04;16.42;;;10.60;;
42282;SDS011;28237;47.954;21.730;2023-10-19T03:45:39;14.57;;;6.45;;
42282;SDS011;28237;47.954;21.730;2023-10-19T03:48:09;18.17;;;10.38;;
42282;SDS011;28237;47.954;21.730;2023-10-19T03:50:35;16.83;;;10.82;;
42282;SDS011;28237;47.954;21.730;2023-10-19T03:53:01;16.70;;;11.25;;
42282;SDS011;28237;47.954;21.730;2023-10-19T03:55:29;17.35;;;11.35;;
42282;SDS011;28237;47.954;21.730;2023-10-19T03:57:55;17.17;;;10.70;;
42282;SDS011;28237;47.954;21.730;2023-10-19T04:00:21;16.85;;;10.43;;
42282;SDS011;28237;47.954;21.730;2023-10-19T04:02:53;17.00;;;10.13;;
42282;SDS011;28237;47.954;21.730;2023-10-19T04:05:20;18.70;;;11.65;;
42282;SDS011;28237;47.954;21.730;2023-10-19T04:07:47;16.65;;;10.48;;
42282;SDS011;28237;47.954;21.730;2023-10-19T04:10:15;17.45;;;11.85;;
42282;SDS011;28237;47.954;21.730;2023-10-19T04:13:03;13.93;;;10.15;;
42282;SDS011;28237;47.954;21.730;2023-10-19T04:15:29;14.65;;;9.57;;
42282;SDS011;28237;47.954;21.730;2023-10-19T04:17:54;16.70;;;10.88;;
42282;SDS011;28237;47.954;21.730;2023-10-19T04:20:23;18.02;;;10.25;;
42282;SDS011;28237;47.954;21.730;2023-10-19T04:22:54;18.02;;;11.50;;
42282;SDS011;28237;47.954;21.730;2023-10-19T04:25:19;16.48;;;10.43;;
42282;SDS011;28237;47.954;21.730;2023-10-19T04:27:45;17.30;;;11.75;;
42282;SDS011;28237;47.954;21.730;2023-10-19T04:30:12;16.60;;;10.57;;
42282;SDS011;28237;47.954;21.730;2023-10-19T04:32:47;17.27;;;10.65;;
42282;SDS011;28237;47.954;21.730;2023-10-19T04:35:12;15.77;;;9.77;;
42282;SDS011;28237;47.954;21.730;2023-10-19T04:37:39;15.57;;;9.63;;
42282;SDS011;28237;47.954;21.730;2023-10-19T04:40:10;15.93;;;10.13;;
42282;SDS011;28237;47.954;21.730;2023-10-19T04:42:37;17.60;;;10.48;;
42282;SDS011;28237;47.954;21.730;2023-10-19T04:45:02;13.35;;;8.90;;
42282;SDS011;28237;47.954;21.730;2023-10-19T04:47:28;20.05;;;9.60;;
42282;SDS011;28237;47.954;21.730;2023-10-19T04:49:53;14.88;;;10.02;;
42282;SDS011;28237;47.954;21.730;2023-10-19T04:52:19;19.70;;;10.90;;
42282;SDS011;28237;47.954;21.730;2023-10-19T04:54:44;15.10;;;9.43;;
42282;SDS011;28237;47.954;21.730;2023-10-19T04:57:09;17.53;;;10.83;;
42282;SDS011;28237;47.954;21.730;2023-10-19T04:59:36;15.27;;;11.40;;
42282;SDS011;28237;47.954;21.730;2023-10-19T05:02:01;15.30;;;10.43;;
42282;SDS011;28237;47.954;21.730;2023-10-19T05:04:29;19.00;;;10.15;;
42282;SDS011;28237;47.954;21.730;2023-10-19T05:06:54;20.23;;;11.80;;
42282;SDS011;28237;47.954;21.730;2023-10-19T05:09:20;17.48;;;10.82;;
42282;SDS011;28237;47.954;21.730;2023-10-19T05:11:45;20.25;;;11.23;;
42282;SDS011;28237;47.954;21.730;2023-10-19T05:14:11;18.80;;;11.15;;
42282;SDS011;28237;47.954;21.730;2023-10-19T05:16:38;16.60;;;10.07;;
42282;SDS011;28237;47.954;21.730;2023-10-19T05:19:04;18.27;;;12.55;;
42282;SDS011;28237;47.954;21.730;2023-10-19T05:21:30;16.55;;;9.88;;
42282;SDS011;28237;47.954;21.730;2023-10-19T05:23:55;17.33;;;10.43;;
42282;SDS011;28237;47.954;21.730;2023-10-19T05:26:20;20.42;;;10.68;;
42282;SDS011;28237;47.954;21.730;2023-10-19T05:28:45;15.25;;;10.20;;
42282;SDS011;28237;47.954;21.730;2023-10-19T05:31:12;16.23;;;10.07;;
42282;SDS011;28237;47.954;21.730;2023-10-19T05:33:37;14.48;;;10.10;;
42282;SDS011;28237;47.954;21.730;2023-10-19T05:36:03;13.80;;;9.70;;
42282;SDS011;28237;47.954;21.730;2023-10-19T05:38:28;16.35;;;9.82;;
42282;SDS011;28237;47.954;21.730;2023-10-19T05:40:53;15.93;;;9.35;;
42282;SDS011;28237;47.954;21.730;2023-10-19T05:43:21;16.50;;;9.63;;
42282;SDS011;28237;47.954;21.730;2023-10-19T05:45:46;12.97;;;8.73;;
42282;SDS011;28237;47.954;21.730;2023-10-19T05:48:15;14.80;;;9.45;;
42282;SDS011;28237;47.954;21.730;2023-10-19T05:50:42;15.88;;;9.75;;
42282;SDS011;28237;47.954;21.730;2023-10-19T05:53:07;17.63;;;9.40;;
42282;SDS011;28237;47.954;21.730;2023-10-19T05:55:33;18.10;;;10.70;;
42282;SDS011;28237;47.954;21.730;2023-10-19T05:58:01;13.95;;;9.45;;
42282;SDS011;28237;47.954;21.730;2023-10-19T06:00:26;16.95;;;10.32;;
42282;SDS011;28237;47.954;21.730;2023-10-19T06:02:52;15.10;;;9.88;;
42282;SDS011;28237;47.954;21.730;2023-10-19T06:05:17;14.63;;;10.68;;
42282;SDS011;28237;47.954;21.730;2023-10-19T06:07:43;17.40;;;10.68;;
42282;SDS011;28237;47.954;21.730;2023-10-19T06:10:16;17.13;;;10.50;;
42282;SDS011;28237;47.954;21.730;2023-10-19T06:12:42;14.45;;;10.15;;
42282;SDS011;28237;47.954;21.730;2023-10-19T06:15:09;19.98;;;10.32;;
42282;SDS011;28237;47.954;21.730;2023-10-19T06:17:36;16.42;;;10.18;;
42282;SDS011;28237;47.954;21.730;2023-10-19T06:20:01;16.55;;;9.95;;
42282;SDS011;28237;47.954;21.730;2023-10-19T06:22:26;15.50;;;8.70;;
42282;SDS011;28237;47.954;21.730;2023-10-19T06:24:53;13.98;;;9.40;;
42282;SDS011;28237;47.954;21.730;2023-10-19T06:27:18;16.73;;;9.40;;
42282;SDS011;28237;47.954;21.730;2023-10-19T06:29:45;13.90;;;8.90;;
42282;SDS011;28237;47.954;21.730;2023-10-19T06:32:10;17.73;;;10.63;;
42282;SDS011;28237;47.954;21.730;2023-10-19T06:34:38;14.68;;;9.77;;
42282;SDS011;28237;47.954;21.730;2023-10-19T06:37:03;16.02;;;10.23;;
42282;SDS011;28237;47.954;21.730;2023-10-19T06:39:32;19.08;;;10.30;;
42282;SDS011;28237;47.954;21.730;2023-10-19T06:41:57;17.23;;;9.88;;
42282;SDS011;28237;47.954;21.730;2023-10-19T06:44:22;15.55;;;10.43;;
42282;SDS011;28237;47.954;21.730;2023-10-19T06:46:48;15.10;;;9.77;;
42282;SDS011;28237;47.954;21.730;2023-10-19T06:49:13;16.70;;;9.70;;
42282;SDS011;28237;47.954;21.730;2023-10-19T06:51:40;18.92;;;10.27;;
42282;SDS011;28237;47.954;21.730;2023-10-19T06:54:05;16.47;;;11.17;;
42282;SDS011;28237;47.954;21.730;2023-10-19T06:56:33;18.88;;;11.13;;
42282;SDS011;28237;47.954;21.730;2023-10-19T06:59:00;16.48;;;11.05;;
42282;SDS011;28237;47.954;21.730;2023-10-19T07:01:25;17.33;;;10.05;;
42282;SDS011;28237;47.954;21.730;2023-10-19T07:03:54;22.42;;;12.35;;
42282;SDS011;28237;47.954;21.730;2023-10-19T07:06:21;17.30;;;10.80;;
42282;SDS011;28237;47.954;21.730;2023-10-19T07:08:47;19.20;;;11.82;;
42282;SDS011;28237;47.954;21.730;2023-10-19T07:11:12;20.42;;;10.77;;
42282;SDS011;28237;47.954;21.730;2023-10-19T07:13:37;17.77;;;11.13;;
42282;SDS011;28237;47.954;21.730;2023-10-19T07:16:05;17.60;;;10.02;;
42282;SDS011;28237;47.954;21.730;2023-10-19T07:18:30;21.13;;;10.35;;
42282;SDS011;28237;47.954;21.730;2023-10-19T07:20:55;19.92;;;11.38;;
42282;SDS011;28237;47.954;21.730;2023-10-19T07:23:28;19.92;;;9.93;;
42282;SDS011;28237;47.954;21.730;2023-10-19T07:25:53;14.02;;;9.70;;
42282;SDS011;28237;47.954;21.730;2023-10-19T07:28:25;17.75;;;9.88;;
42282;SDS011;28237;47.954;21.730;2023-10-19T07:30:51;12.70;;;8.73;;
42282;SDS011;28237;47.954;21.730;2023-10-19T07:33:17;13.80;;;9.98;;
42282;SDS011;28237;47.954;21.730;2023-10-19T07:35:43;13.10;;;8.57;;
42282;SDS011;28237;47.954;21.730;2023-10-19T07:38:09;14.38;;;9.88;;
42282;SDS011;28237;47.954;21.730;2023-10-19T07:40:35;17.23;;;10.27;;
42282;SDS011;28237;47.954;21.730;2023-10-19T07:43:00;18.58;;;10.52;;
42282;SDS011;28237;47.954;21.730;2023-10-19T07:45:26;18.13;;;9.43;;
42282;SDS011;28237;47.954;21.730;2023-10-19T07:47:51;17.45;;;11.00;;
42282;SDS011;28237;47.954;21.730;2023-10-19T07:50:16;20.87;;;9.77;;
42282;SDS011;28237;47.954;21.730;2023-10-19T07:52:42;20.45;;;10.80;;
42282;SDS011;28237;47.954;21.730;2023-10-19T07:55:09;15.43;;;10.57;;
42282;SDS011;28237;47.954;21.730;2023-10-19T07:57:34;15.23;;;10.40;;
42282;SDS011;28237;47.954;21.730;2023-10-19T07:59:59;13.48;;;9.88;;
42282;SDS011;28237;47.954;21.730;2023-10-19T08:02:25;16.15;;;11.57;;
42282;SDS011;28237;47.954;21.730;2023-10-19T08:04:52;15.75;;;11.48;;
42282;SDS011;28237;47.954;21.730;2023-10-19T08:07:17;20.63;;;12.05;;
42282;SDS011;28237;47.954;21.730;2023-10-19T08:09:42;20.27;;;13.20;;
42282;SDS011;28237;47.954;21.730;2023-10-19T08:12:09;19.17;;;13.52;;
42282;SDS011;28237;47.954;21.730;2023-10-19T08:14:34;16.08;;;11.82;;
42282;SDS011;28237;47.954;21.730;2023-10-19T08:17:00;18.52;;;10.68;;
42282;SDS011;28237;47.954;21.730;2023-10-19T08:19:27;15.18;;;9.57;;
42282;SDS011;28237;47.954;21.730;2023-10-19T08:21:52;13.45;;;9.25;;
42282;SDS011;28237;47.954;21.730;2023-10-19T08:24:18;10.52;;;8.45;;
42282;SDS011;28237;47.954;21.730;2023-10-19T08:26:46;12.18;;;8.07;;
42282;SDS011;28237;47.954;21.730;2023-10-19T08:29:11;12.52;;;8.30;;
42282;SDS011;28237;47.954;21.730;2023-10-19T08:31:40;9.73;;;7.47;;
42282;SDS011;28237;47.954;21.730;2023-10-19T08:34:06;11.13;;;7.03;;
42282;SDS011;28237;47.954;21.730;2023-10-19T08:36:31;10.15;;;7.18;;
42282;SDS011;28237;47.954;21.730;2023-10-19T08:38:56;10.97;;;6.67;;
42282;SDS011;28237;47.954;21.730;2023-10-19T08:41:22;9.97;;;6.33;;
42282;SDS011;28237;47.954;21.730;2023-10-19T08:43:48;11.50;;;7.28;;
42282;SDS011;28237;47.954;21.730;2023-10-19T08:46:14;9.05;;;7.55;;
42282;SDS011;28237;47.954;21.730;2023-10-19T08:48:39;14.40;;;8.35;;
42282;SDS011;28237;47.954;21.730;2023-10-19T08:51:09;11.27;;;8.75;;
42282;SDS011;28237;47.954;21.730;2023-10-19T08:53:38;15.43;;;9.80;;
42282;SDS011;28237;47.954;21.730;2023-10-19T08:56:07;17.83;;;9.30;;
42282;SDS011;28237;47.954;21.730;2023-10-19T08:58:32;12.88;;;8.45;;
42282;SDS011;28237;47.954;21.730;2023-10-19T09:00:58;8.52;;;7.25;;
42282;SDS011;28237;47.954;21.730;2023-10-19T09:03:31;12.82;;;7.43;;
42282;SDS011;28237;47.954;21.730;2023-10-19T09:05:57;9.32;;;6.55;;
42282;SDS011;28237;47.954;21.730;2023-10-19T09:08:22;9.55;;;6.55;;
42282;SDS011;28237;47.954;21.730;2023-10-19T09:10:48;7.70;;;6.90;;
42282;SDS011;28237;47.954;21.730;2023-10-19T09:13:13;9.05;;;7.07;;
42282;SDS011;28237;47.954;21.730;2023-10-19T09:15:43;9.23;;;7.13;;
42282;SDS011;28237;47.954;21.730;2023-10-19T09:18:15;10.80;;;7.20;;
42282;SDS011;28237;47.954;21.730;2023-10-19T09:20:41;8.48;;;7.15;;
42282;SDS011;28237;47.954;21.730;2023-10-19T09:23:07;10.30;;;7.53;;
42282;SDS011;28237;47.954;21.730;2023-10-19T09:25:33;8.40;;;7.07;;
42282;SDS011;28237;47.954;21.730;2023-10-19T09:28:00;10.93;;;8.20;;
42282;SDS011;28237;47.954;21.730;2023-10-19T09:30:25;11.90;;;8.30;;
42282;SDS011;28237;47.954;21.730;2023-10-19T09:32:51;11.13;;;8.15;;
42282;SDS011;28237;47.954;21.730;2023-10-19T09:35:18;10.65;;;8.07;;
42282;SDS011;28237;47.954;21.730;2023-10-19T09:37:44;15.75;;;8.65;;
42282;SDS011;28237;47.954;21.730;2023-10-19T09:40:10;8.57;;;6.88;;
42282;SDS011;28237;47.954;21.730;2023-10-19T09:42:42;12.15;;;7.75;;
42282;SDS011;28237;47.954;21.730;2023-10-19T09:45:11;14.57;;;7.38;;
42282;SDS011;28237;47.954;21.730;2023-10-19T09:47:38;10.40;;;7.15;;
42282;SDS011;28237;47.954;21.730;2023-10-19T09:50:04;14.25;;;6.68;;
42282;SDS011;28237;47.954;21.730;2023-10-19T09:52:31;11.45;;;7.32;;
42282;SDS011;28237;47.954;21.730;2023-10-19T09:54:59;13.50;;;7.30;;
42282;SDS011;28237;47.954;21.730;2023-10-19T09:57:31;8.85;;;6.43;;
42282;SDS011;28237;47.954;21.730;2023-10-19T09:59:59;9.98;;;7.25;;
42282;SDS011;28237;47.954;21.730;2023-10-19T10:02:32;14.63;;;7.47;;
42282;SDS011;28237;47.954;21.730;2023-10-19T10:04:57;11.77;;;6.93;;
42282;SDS011;28237;47.954;21.730;2023-10-19T10:07:23;9.45;;;7.03;;
42282;SDS011;28237;47.954;21.730;2023-10-19T10:09:50;11.75;;;8.57;;
42282;SDS011;28237;47.954;21.730;2023-10-19T10:12:16;10.05;;;7.57;;
42282;SDS011;28237;47.954;21.730;2023-10-19T10:14:52;11.52;;;7.82;;
42282;SDS011;28237;47.954;21.730;2023-10-19T10:17:19;12.23;;;7.85;;
42282;SDS011;28237;47.954;21.730;2023-10-19T10:19:45;14.23;;;6.93;;
42282;SDS011;28237;47.954;21.730;2023-10-19T10:22:10;10.10;;;7.50;;
42282;SDS011;28237;47.954;21.730;2023-10-19T10:24:46;12.63;;;7.40;;
42282;SDS011;28237;47.954;21.730;2023-10-19T10:27:11;9.40;;;6.78;;
42282;SDS011;28237;47.954;21.730;2023-10-19T10:30:01;12.07;;;7.53;;
42282;SDS011;28237;47.954;21.730;2023-10-19T10:35:08;9.45;;;6.95;;
42282;SDS011;28237;47.954;21.730;2023-10-19T10:37:36;8.82;;;7.15;;
42282;SDS011;28237;47.954;21.730;2023-10-19T10:40:01;8.55;;;6.18;;
42282;SDS011;28237;47.954;21.730;2023-10-19T10:42:28;8.30;;;6.40;;
42282;SDS011;28237;47.954;21.730;2023-10-19T10:44:54;7.35;;;5.90;;
42282;SDS011;28237;47.954;21.730;2023-10-19T10:47:21;11.18;;;6.47;;
42282;SDS011;28237;47.954;21.730;2023-10-19T10:49:57;9.93;;;6.35;;
42282;SDS011;28237;47.954;21.730;2023-10-19T10:52:27;12.25;;;7.70;;
42282;SDS011;28237;47.954;21.730;2023-10-19T10:54:54;10.38;;;7.28;;
42282;SDS011;28237;47.954;21.730;2023-10-19T10:57:20;14.55;;;7.00;;
42282;SDS011;28237;47.954;21.730;2023-10-19T10:59:45;9.77;;;7.22;;
42282;SDS011;28237;47.954;21.730;2023-10-19T11:02:17;9.40;;;7.65;;
42282;SDS011;28237;47.954;21.730;2023-10-19T11:04:43;11.45;;;6.97;;
42282;SDS011;28237;47.954;21.730;2023-10-19T11:07:16;12.93;;;7.97;;
42282;SDS011;28237;47.954;21.730;2023-10-19T11:09:45;12.98;;;7.70;;
42282;SDS011;28237;47.954;21.730;2023-10-19T11:12:11;9.38;;;5.57;;
42282;SDS011;28237;47.954;21.730;2023-10-19T11:14:37;9.07;;;6.10;;
42282;SDS011;28237;47.954;21.730;2023-10-19T11:17:14;9.50;;;6.67;;
42282;SDS011;28237;47.954;21.730;2023-10-19T11:19:40;8.85;;;6.03;;
42282;SDS011;28237;47.954;21.730;2023-10-19T11:22:09;7.40;;;6.38;;
42282;SDS011;28237;47.954;21.730;2023-10-19T11:24:34;11.27;;;7.47;;
42282;SDS011;28237;47.954;21.730;2023-10-19T11:27:05;11.57;;;7.35;;
42282;SDS011;28237;47.954;21.730;2023-10-19T11:29:32;16.20;;;7.28;;
42282;SDS011;28237;47.954;21.730;2023-10-19T11:31:58;9.88;;;6.80;;
42282;SDS011;28237;47.954;21.730;2023-10-19T11:34:24;9.77;;;6.25;;
42282;SDS011;28237;47.954;21.730;2023-10-19T11:36:53;8.75;;;6.50;;
42282;SDS011;28237;47.954;21.730;2023-10-19T11:39:21;9.75;;;6.22;;
42282;SDS011;28237;47.954;21.730;2023-10-19T11:41:48;9.57;;;6.85;;
42282;SDS011;28237;47.954;21.730;2023-10-19T11:44:13;8.00;;;6.18;;
42282;SDS011;28237;47.954;21.730;2023-10-19T11:46:39;9.60;;;6.18;;
42282;SDS011;28237;47.954;21.730;2023-10-19T11:49:04;11.10;;;6.60;;
42282;SDS011;28237;47.954;21.730;2023-10-19T11:51:30;12.07;;;7.30;;
42282;SDS011;28237;47.954;21.730;2023-10-19T11:53:56;12.38;;;6.82;;
42282;SDS011;28237;47.954;21.730;2023-10-19T11:56:21;8.88;;;6.72;;
42282;SDS011;28237;47.954;21.730;2023-10-19T11:58:47;9.48;;;6.80;;
42282;SDS011;28237;47.954;21.730;2023-10-19T12:01:12;15.38;;;8.65;;
42282;SDS011;28237;47.954;21.730;2023-10-19T12:03:38;13.10;;;8.50;;
42282;SDS011;28237;47.954;21.730;2023-10-19T12:06:08;11.77;;;8.35;;
42282;SDS011;28237;47.954;21.730;2023-10-19T12:08:35;10.18;;;7.50;;
42282;SDS011;28237;47.954;21.730;2023-10-19T12:11:01;12.25;;;7.88;;
42282;SDS011;28237;47.954;21.730;2023-10-19T12:13:28;12.15;;;7.60;;
42282;SDS011;28237;47.954;21.730;2023-10-19T12:15:54;11.55;;;6.85;;
42282;SDS011;28237;47.954;21.730;2023-10-19T12:18:23;11.95;;;7.65;;
42282;SDS011;28237;47.954;21.730;2023-10-19T12:20:50;11.02;;;6.85;;
42282;SDS011;28237;47.954;21.730;2023-10-19T12:23:16;10.77;;;7.60;;
42282;SDS011;28237;47.954;21.730;2023-10-19T12:25:41;9.23;;;6.93;;
42282;SDS011;28237;47.954;21.730;2023-10-19T12:28:07;11.27;;;7.18;;
42282;SDS011;28237;47.954;21.730;2023-10-19T12:30:32;11.48;;;7.25;;
42282;SDS011;28237;47.954;21.730;2023-10-19T12:33:02;13.50;;;7.38;;
42282;SDS011;28237;47.954;21.730;2023-10-19T12:35:30;13.13;;;8.65;;
42282;SDS011;28237;47.954;21.730;2023-10-19T12:38:09;10.48;;;7.10;;
42282;SDS011;28237;47.954;21.730;2023-10-19T12:40:41;15.40;;;8.23;;
42282;SDS011;28237;47.954;21.730;2023-10-19T12:43:06;11.25;;;7.75;;
42282;SDS011;28237;47.954;21.730;2023-10-19T12:45:32;9.30;;;6.78;;
42282;SDS011;28237;47.954;21.730;2023-10-19T12:48:02;11.32;;;7.97;;
42282;SDS011;28237;47.954;21.730;2023-10-19T12:50:28;9.60;;;7.75;;
42282;SDS011;28237;47.954;21.730;2023-10-19T12:52:53;12.40;;;7.53;;
42282;SDS011;28237;47.954;21.730;2023-10-19T12:55:21;8.52;;;6.57;;
42282;SDS011;28237;47.954;21.730;2023-10-19T12:57:46;10.73;;;7.47;;
42282;SDS011;28237;47.954;21.730;2023-10-19T13:00:11;9.67;;;6.73;;
42282;SDS011;28237;47.954;21.730;2023-10-19T13:02:50;8.65;;;6.97;;
42282;SDS011;28237;47.954;21.730;2023-10-19T13:05:16;8.43;;;6.65;;
42282;SDS011;28237;47.954;21.730;2023-10-19T13:07:46;10.35;;;7.65;;
42282;SDS011;28237;47.954;21.730;2023-10-19T13:10:11;11.73;;;7.32;;
42282;SDS011;28237;47.954;21.730;2023-10-19T13:12:37;10.70;;;7.23;;
42282;SDS011;28237;47.954;21.730;2023-10-19T13:15:02;12.65;;;7.53;;
42282;SDS011;28237;47.954;21.730;2023-10-19T13:17:28;11.00;;;7.60;;
42282;SDS011;28237;47.954;21.730;2023-10-19T13:19:53;11.45;;;8.00;;
42282;SDS011;28237;47.954;21.730;2023-10-19T13:22:21;9.65;;;7.75;;
42282;SDS011;28237;47.954;21.730;2023-10-19T13:24:46;13.33;;;7.20;;
42282;SDS011;28237;47.954;21.730;2023-10-19T13:27:12;11.55;;;6.75;;
42282;SDS011;28237;47.954;21.730;2023-10-19T13:29:37;13.43;;;7.60;;
42282;SDS011;28237;47.954;21.730;2023-10-19T13:32:06;9.95;;;7.30;;
42282;SDS011;28237;47.954;21.730;2023-10-19T13:34:31;12.80;;;7.87;;
42282;SDS011;28237;47.954;21.730;2023-10-19T13:36:57;10.47;;;6.97;;
42282;SDS011;28237;47.954;21.730;2023-10-19T13:39:22;9.87;;;6.80;;
42282;SDS011;28237;47.954;21.730;2023-10-19T13:41:50;13.07;;;8.85;;
42282;SDS011;28237;47.954;21.730;2023-10-19T13:44:17;13.05;;;7.63;;
42282;SDS011;28237;47.954;21.730;2023-10-19T13:46:45;10.98;;;6.85;;
42282;SDS011;28237;47.954;21.730;2023-10-19T13:49:10;12.20;;;7.43;;
42282;SDS011;28237;47.954;21.730;2023-10-19T13:51:36;9.93;;;6.88;;
42282;SDS011;28237;47.954;21.730;2023-10-19T13:54:01;9.30;;;6.85;;
42282;SDS011;28237;47.954;21.730;2023-10-19T13:56:26;12.07;;;7.00;;
42282;SDS011;28237;47.954;21.730;2023-10-19T13:58:52;9.90;;;7.30;;
42282;SDS011;28237;47.954;21.730;2023-10-19T14:01:17;8.85;;;6.35;;
42282;SDS011;28237;47.954;21.730;2023-10-19T14:03:43;12.60;;;7.50;;
42282;SDS011;28237;47.954;21.730;2023-10-19T14:06:14;10.60;;;7.43;;
42282;SDS011;28237;47.954;21.730;2023-10-19T14:08:40;12.07;;;8.90;;
42282;SDS011;28237;47.954;21.730;2023-10-19T14:11:05;13.38;;;7.97;;
42282;SDS011;28237;47.954;21.730;2023-10-19T14:13:31;12.23;;;8.02;;
42282;SDS011;28237;47.954;21.730;2023-10-19T14:15:56;14.43;;;8.47;;
42282;SDS011;28237;47.954;21.730;2023-10-19T14:18:22;10.80;;;8.05;;
42282;SDS011;28237;47.954;21.730;2023-10-19T14:20:47;12.03;;;8.83;;
42282;SDS011;28237;47.954;21.730;2023-10-19T14:23:13;11.50;;;7.68;;
42282;SDS011;28237;47.954;21.730;2023-10-19T14:25:38;13.13;;;8.13;;
42282;SDS011;28237;47.954;21.730;2023-10-19T14:28:04;13.52;;;8.68;;